createdAt,value
2023-02-13T00:00:42.603Z,80.60
2023-02-13T00:03:10.278Z,80.40
2023-02-13T00:05:37.969Z,80.00
2023-02-13T00:08:06.081Z,79.70
2023-02-13T00:10:33.792Z,79.30
2023-02-13T00:13:02.777Z,79.20
2023-02-13T00:15:30.466Z,79.00
2023-02-13T00:17:58.222Z,78.90
2023-02-13T00:20:25.888Z,78.30
2023-02-13T00:22:53.578Z,78.70
2023-02-13T00:25:21.282Z,78.40
2023-02-13T00:27:48.947Z,78.50
2023-02-13T00:30:19.648Z,78.00
2023-02-13T00:32:47.360Z,77.10
2023-02-13T00:35:15.058Z,77.60
2023-02-13T00:37:42.727Z,76.90
2023-02-13T00:40:11.335Z,76.70
2023-02-13T00:42:39.450Z,76.70
2023-02-13T00:45:07.561Z,76.60
2023-02-13T00:47:36.570Z,76.00
2023-02-13T00:50:04.507Z,75.50
2023-02-13T00:52:32.186Z,75.50
2023-02-13T00:54:59.938Z,75.20
2023-02-13T00:57:27.651Z,75.20
2023-02-13T00:59:55.320Z,74.60
2023-02-13T01:02:22.965Z,74.60
2023-02-13T01:04:51.972Z,74.40
2023-02-13T01:07:19.673Z,74.70
2023-02-13T01:09:47.327Z,74.10
2023-02-13T01:12:15.026Z,74.20
2023-02-13T01:14:44.505Z,73.60
2023-02-13T01:17:12.205Z,73.50
2023-02-13T01:19:41.602Z,72.80
2023-02-13T01:22:10.718Z,72.10
2023-02-13T01:24:38.387Z,71.70
2023-02-13T01:27:06.059Z,71.80
2023-02-13T01:29:33.951Z,71.60
2023-02-13T01:32:03.770Z,71.00
2023-02-13T01:34:31.610Z,70.70
2023-02-13T01:36:59.277Z,70.50
2023-02-13T01:39:28.276Z,70.60
2023-02-13T01:41:56.251Z,69.50
2023-02-13T01:44:46.756Z,69.90
2023-02-13T01:47:17.565Z,69.10
2023-02-13T01:49:45.838Z,69.40
2023-02-13T01:52:13.528Z,69.20
2023-02-13T01:54:42.550Z,68.60
2023-02-13T01:57:11.882Z,68.10
2023-02-13T01:59:41.982Z,68.50
2023-02-13T02:02:09.748Z,67.50
2023-02-13T02:04:38.113Z,67.90
2023-02-13T02:07:12.634Z,67.80
2023-02-13T02:09:43.957Z,67.30
2023-02-13T02:12:15.839Z,66.90
2023-02-13T02:14:45.279Z,66.60
2023-02-13T02:17:13.846Z,66.90
2023-02-13T02:19:45.614Z,67.00
2023-02-13T02:22:37.290Z,65.80
2023-02-13T02:25:16.107Z,65.80
2023-02-13T02:28:12.140Z,65.40
2023-02-13T02:31:12.306Z,65.30
2023-02-13T02:33:46.749Z,65.40
2023-02-13T02:36:23.683Z,65.30
2023-02-13T02:39:00.536Z,65.10
2023-02-13T02:41:45.087Z,65.30
2023-02-13T02:44:24.866Z,65.40
2023-02-13T02:47:21.713Z,65.80
2023-02-13T02:50:02.053Z,64.60
2023-02-13T02:52:36.667Z,65.00
2023-02-13T02:55:10.636Z,65.00
2023-02-13T02:58:05.423Z,64.50
2023-02-13T03:00:51.608Z,64.80
2023-02-13T03:03:37.761Z,64.80
2023-02-13T03:06:14.082Z,64.60
2023-02-13T03:09:00.551Z,64.20
2023-02-13T03:11:45.867Z,64.40
2023-02-13T03:14:15.802Z,64.40
2023-02-13T03:17:01.234Z,64.20
2023-02-13T03:19:50.520Z,64.40
2023-02-13T03:22:27.859Z,63.40
2023-02-13T03:25:00.217Z,63.40
2023-02-13T03:27:56.602Z,64.40
2023-02-13T03:30:28.680Z,64.10
2023-02-13T03:33:02.666Z,64.60
2023-02-13T03:35:53.281Z,64.70
2023-02-13T03:38:25.028Z,64.40
2023-02-13T03:41:12.304Z,64.50
2023-02-13T03:43:43.683Z,64.30
2023-02-13T03:46:11.556Z,63.80
2023-02-13T03:48:57.633Z,64.00
2023-02-13T03:51:27.973Z,64.10
2023-02-13T03:53:59.106Z,64.40
2023-02-13T03:56:45.190Z,63.90
2023-02-13T03:59:19.223Z,64.10
2023-02-13T04:01:49.922Z,63.80
2023-02-13T04:04:22.889Z,63.80
2023-02-13T04:06:51.685Z,64.00
2023-02-13T04:09:20.694Z,64.20
2023-02-13T04:11:51.051Z,64.60
2023-02-13T04:14:21.334Z,64.20
2023-02-13T04:16:50.287Z,64.00
2023-02-13T04:19:17.981Z,64.00
2023-02-13T04:21:45.653Z,64.30
2023-02-13T04:24:13.297Z,64.40
2023-02-13T04:26:43.955Z,64.30
2023-02-13T04:29:11.620Z,64.30
2023-02-13T04:31:40.229Z,64.60
2023-02-13T04:34:08.016Z,64.80
2023-02-13T04:36:35.713Z,64.60
2023-02-13T04:39:03.471Z,64.60
2023-02-13T04:41:31.288Z,64.50
2023-02-13T04:44:00.350Z,64.30
2023-02-13T04:46:28.079Z,64.30
2023-02-13T04:48:55.829Z,64.20
2023-02-13T04:51:23.511Z,64.10
2023-02-13T04:53:51.187Z,65.10
2023-02-13T04:56:19.962Z,64.40
2023-02-13T04:58:47.798Z,64.30
2023-02-13T05:01:17.298Z,64.40
2023-02-13T05:03:44.979Z,64.40
2023-02-13T05:06:12.700Z,64.70
2023-02-13T05:08:40.398Z,64.60
2023-02-13T05:11:08.092Z,64.50
2023-02-13T05:13:35.799Z,64.80
2023-02-13T05:16:03.560Z,64.60
2023-02-13T05:18:32.581Z,64.70
2023-02-13T05:21:17.810Z,64.60
2023-02-13T05:23:45.473Z,64.80
2023-02-13T05:26:13.117Z,65.10
2023-02-13T05:28:58.514Z,64.90
2023-02-13T05:31:26.263Z,64.80
2023-02-13T05:33:55.382Z,65.00
2023-02-13T05:36:23.047Z,64.90
2023-02-13T05:38:50.736Z,65.00
2023-02-13T05:41:18.396Z,65.00
2023-02-13T05:43:46.084Z,65.10
2023-02-13T05:46:13.858Z,65.10
2023-02-13T05:48:41.562Z,65.10
2023-02-13T05:51:10.630Z,65.30
2023-02-13T05:53:38.319Z,65.50
2023-02-13T05:56:06.548Z,65.60
2023-02-13T05:58:34.287Z,65.50
2023-02-13T06:01:02.101Z,65.60
2023-02-13T06:03:30.442Z,65.90
2023-02-13T06:05:58.270Z,65.70
2023-02-13T06:08:27.397Z,65.60
2023-02-13T06:10:55.073Z,65.60
2023-02-13T06:13:22.784Z,66.00
2023-02-13T06:15:50.993Z,65.80
2023-02-13T06:18:18.712Z,66.00
2023-02-13T06:20:46.407Z,65.90
2023-02-13T06:23:14.157Z,66.80
2023-02-13T06:25:43.196Z,65.80
2023-02-13T06:28:10.906Z,65.60
2023-02-13T06:30:38.647Z,65.80
2023-02-13T06:33:06.344Z,65.70
2023-02-13T06:35:34.086Z,65.60
2023-02-13T06:38:01.798Z,65.50
2023-02-13T06:40:29.528Z,65.70
2023-02-13T06:42:58.502Z,65.60
2023-02-13T06:45:26.222Z,65.50
2023-02-13T06:47:53.885Z,65.40
2023-02-13T06:50:21.726Z,65.70
2023-02-13T06:52:49.495Z,65.30
2023-02-13T06:55:17.375Z,65.40
2023-02-13T06:57:45.463Z,65.30
2023-02-13T07:00:15.839Z,65.40
2023-02-13T07:02:43.905Z,65.40
2023-02-13T07:05:11.732Z,65.30
2023-02-13T07:07:39.805Z,65.30
2023-02-13T07:10:08.347Z,65.50
2023-02-13T07:12:36.549Z,65.20
2023-02-13T07:15:04.511Z,65.20
2023-02-13T07:17:33.982Z,65.60
2023-02-13T07:20:01.762Z,65.40
2023-02-13T07:22:29.510Z,65.60
2023-02-13T07:24:58.905Z,65.60
2023-02-13T07:27:29.079Z,65.70
2023-02-13T07:29:57.552Z,65.50
2023-02-13T07:32:25.398Z,65.50
2023-02-13T07:35:01.659Z,65.70
2023-02-13T07:37:30.067Z,65.50
2023-02-13T07:39:57.760Z,65.60
2023-02-13T07:42:25.700Z,65.50
2023-02-13T07:44:53.337Z,65.70
2023-02-13T07:47:21.022Z,65.50
2023-02-13T07:49:48.715Z,65.70
2023-02-13T07:52:17.725Z,65.60
2023-02-13T07:54:48.170Z,65.70
2023-02-13T07:57:15.949Z,65.60
2023-02-13T07:59:43.625Z,65.60
2023-02-13T08:02:13.058Z,66.00
2023-02-13T08:04:40.872Z,65.60
2023-02-13T08:07:08.571Z,65.80
2023-02-13T08:09:55.096Z,65.80
2023-02-13T08:12:22.789Z,65.90
2023-02-13T08:14:50.433Z,65.90
2023-02-13T08:17:18.095Z,65.70
2023-02-13T08:19:45.741Z,65.70
2023-02-13T08:22:13.394Z,66.10
2023-02-13T08:24:42.373Z,65.80
2023-02-13T08:27:12.485Z,66.00
2023-02-13T08:29:40.178Z,66.10
2023-02-13T08:32:07.982Z,66.20
2023-02-13T08:34:35.758Z,66.30
2023-02-13T08:37:03.505Z,66.30
2023-02-13T08:39:31.414Z,66.40
2023-02-13T08:42:00.442Z,66.80
2023-02-13T08:44:28.138Z,67.00
2023-02-13T08:46:55.811Z,67.30
2023-02-13T08:49:23.663Z,67.20
2023-02-13T08:51:51.562Z,67.30
2023-02-13T08:54:19.304Z,67.40
2023-02-13T08:56:46.978Z,67.40
2023-02-13T08:59:16.024Z,67.50
2023-02-13T09:01:43.866Z,67.40
2023-02-13T09:04:11.649Z,67.70
2023-02-13T09:06:39.445Z,67.70
2023-02-13T09:09:07.125Z,68.00
2023-02-13T09:11:34.865Z,67.80
2023-02-13T09:14:02.543Z,67.90
2023-02-13T09:16:31.580Z,67.70
2023-02-13T09:18:59.300Z,67.70
2023-02-13T09:21:26.985Z,67.80
2023-02-13T09:23:55.170Z,67.80
2023-02-13T09:26:23.036Z,67.80
2023-02-13T09:28:50.883Z,68.00
2023-02-13T09:31:19.500Z,68.10
2023-02-13T09:33:49.821Z,68.00
2023-02-13T09:36:19.915Z,68.10
2023-02-13T09:38:47.799Z,68.00
2023-02-13T09:41:17.322Z,67.90
2023-02-13T09:43:46.495Z,68.00
2023-02-13T09:46:16.789Z,67.90
2023-02-13T09:48:45.359Z,67.80
2023-02-13T09:51:15.839Z,67.70
2023-02-13T09:53:44.016Z,67.90
2023-02-13T09:56:14.461Z,67.80
2023-02-13T09:58:44.507Z,67.80
2023-02-13T10:01:22.210Z,67.70
2023-02-13T10:03:52.982Z,67.10
2023-02-13T10:06:23.994Z,67.20
2023-02-13T10:08:59.933Z,67.30
2023-02-13T10:11:38.863Z,66.90
2023-02-13T10:14:09.941Z,67.00
2023-02-13T10:16:39.086Z,67.10
2023-02-13T10:19:12.798Z,67.10
2023-02-13T10:21:43.712Z,66.90
2023-02-13T10:24:12.814Z,67.10
2023-02-13T10:26:45.582Z,67.30
2023-02-13T10:29:34.634Z,67.50
2023-02-13T10:32:05.032Z,67.40
2023-02-13T10:34:34.454Z,67.60
2023-02-13T10:37:03.433Z,67.60
2023-02-13T10:39:31.500Z,67.70
2023-02-13T10:42:03.233Z,67.70
2023-02-13T10:44:37.567Z,67.80
2023-02-13T10:47:10.743Z,67.80
2023-02-13T10:49:47.175Z,68.00
2023-02-13T10:52:21.626Z,67.80
2023-02-13T10:54:58.470Z,68.00
2023-02-13T10:57:27.844Z,67.80
2023-02-13T11:00:02.596Z,68.10
2023-02-13T11:02:31.687Z,67.90
2023-02-13T11:05:00.627Z,67.90
2023-02-13T11:07:29.716Z,68.00
2023-02-13T11:10:00.429Z,68.00
2023-02-13T11:12:30.024Z,67.90
2023-02-13T11:14:59.320Z,68.50
2023-02-13T11:17:27.604Z,68.20
2023-02-13T11:19:56.081Z,68.80
2023-02-13T11:22:32.001Z,68.00
2023-02-13T11:25:00.644Z,67.80
2023-02-13T11:27:29.237Z,67.90
2023-02-13T11:29:57.841Z,67.80
2023-02-13T11:32:26.171Z,67.90
2023-02-13T11:34:54.718Z,68.70
2023-02-13T11:37:24.563Z,68.00
2023-02-13T11:39:54.283Z,67.80
2023-02-13T11:42:26.124Z,67.80
2023-02-13T11:44:54.765Z,67.70
2023-02-13T11:47:39.699Z,67.80
2023-02-13T11:50:21.086Z,67.60
2023-02-13T11:52:55.441Z,67.80
2023-02-13T11:55:30.227Z,67.40
2023-02-13T11:57:59.179Z,67.30
2023-02-13T12:00:30.809Z,67.60
2023-02-13T12:02:58.560Z,67.40
2023-02-13T12:05:27.299Z,67.70
2023-02-13T12:07:56.189Z,67.70
2023-02-13T12:10:24.905Z,67.50
2023-02-13T12:12:56.488Z,67.70
2023-02-13T12:15:25.595Z,67.40
2023-02-13T12:18:01.182Z,67.40
2023-02-13T12:20:28.858Z,67.20
2023-02-13T12:23:01.944Z,67.50
2023-02-13T12:25:38.590Z,67.20
2023-02-13T12:28:14.455Z,67.30
2023-02-13T12:31:08.500Z,67.40
2023-02-13T12:33:48.249Z,67.60
2023-02-13T12:36:17.306Z,66.90
2023-02-13T12:38:55.514Z,66.80
2023-02-13T12:41:23.825Z,65.20
2023-02-13T12:44:21.060Z,65.40
2023-02-13T12:46:53.870Z,62.70
2023-02-13T12:49:35.145Z,62.40
2023-02-13T12:52:09.738Z,60.70
2023-02-13T12:54:42.671Z,61.00
2023-02-13T12:57:16.497Z,60.40
2023-02-13T12:59:56.138Z,59.10
2023-02-13T13:02:41.439Z,58.20
2023-02-13T13:05:16.010Z,60.40
2023-02-13T13:07:51.847Z,59.60
2023-02-13T13:10:35.891Z,61.10
2023-02-13T13:13:07.421Z,59.70
2023-02-13T13:15:39.198Z,61.00
2023-02-13T13:18:21.242Z,62.50
2023-02-13T13:21:05.890Z,62.90
2023-02-13T13:23:34.140Z,62.60
2023-02-13T13:26:07.304Z,63.00
2023-02-13T13:28:36.063Z,62.40
2023-02-13T13:31:05.447Z,63.10
2023-02-13T13:33:33.695Z,62.70
2023-02-13T13:36:05.404Z,63.00
2023-02-13T13:38:40.544Z,62.10
2023-02-13T13:41:11.623Z,61.40
2023-02-13T13:43:41.953Z,63.80
2023-02-13T13:46:13.566Z,64.30
2023-02-13T13:48:51.308Z,63.50
2023-02-13T13:51:19.152Z,63.20
2023-02-13T13:54:23.184Z,63.80
2023-02-13T13:57:12.422Z,63.70
2023-02-13T14:00:01.620Z,63.90
2023-02-13T14:02:40.196Z,62.40
2023-02-13T14:05:21.063Z,64.00
2023-02-13T14:07:49.705Z,59.80
2023-02-13T14:10:57.341Z,59.70
2023-02-13T14:13:32.394Z,57.70
2023-02-13T14:16:00.125Z,57.70
2023-02-13T14:18:29.170Z,57.30
2023-02-13T14:20:58.521Z,57.00
2023-02-13T14:23:31.828Z,57.20
2023-02-13T14:26:13.404Z,51.30
2023-02-13T14:28:41.304Z,47.90
2023-02-13T14:31:11.361Z,48.20
2023-02-13T14:33:40.434Z,46.00
2023-02-13T14:36:09.338Z,44.70
2023-02-13T14:38:37.058Z,44.50
2023-02-13T14:41:07.175Z,44.20
2023-02-13T14:43:46.860Z,44.60
2023-02-13T14:46:25.810Z,45.80
2023-02-13T14:48:57.674Z,43.80
2023-02-13T14:51:29.375Z,42.40
2023-02-13T14:54:00.021Z,44.50
2023-02-13T14:56:27.746Z,45.10
2023-02-13T14:58:58.431Z,45.30
2023-02-13T15:01:29.974Z,45.50
2023-02-13T15:04:01.634Z,45.20
2023-02-13T15:06:30.933Z,46.10
2023-02-13T15:08:59.295Z,46.10
2023-02-13T15:11:37.410Z,47.10
2023-02-13T15:14:18.621Z,46.40
2023-02-13T15:16:47.280Z,48.80
2023-02-13T15:19:18.047Z,48.50
2023-02-13T15:21:53.547Z,48.80
2023-02-13T15:24:22.716Z,49.40
2023-02-13T15:26:56.237Z,48.80
2023-02-13T15:29:35.300Z,48.70
2023-02-13T15:32:21.107Z,49.60
2023-02-13T15:34:50.202Z,49.30
2023-02-13T15:37:24.711Z,49.70
2023-02-13T15:39:52.397Z,50.50
2023-02-13T15:42:20.220Z,51.00
2023-02-13T15:44:48.849Z,51.60
2023-02-13T15:47:18.301Z,52.00
2023-02-13T15:49:47.281Z,52.70
2023-02-13T15:52:19.434Z,53.30
2023-02-13T15:54:50.631Z,54.10
2023-02-13T15:57:18.366Z,54.70
2023-02-13T15:59:46.135Z,54.60
2023-02-13T16:02:17.224Z,55.30
2023-02-13T16:04:44.879Z,56.10
2023-02-13T16:07:13.000Z,56.40
2023-02-13T16:09:42.066Z,56.90
2023-02-13T16:12:20.665Z,57.70
2023-02-13T16:14:50.553Z,58.80
2023-02-13T16:17:19.190Z,58.50
2023-02-13T16:19:52.277Z,58.90
2023-02-13T16:22:27.176Z,59.40
2023-02-13T16:24:59.070Z,60.60
2023-02-13T16:27:27.937Z,61.30
2023-02-13T16:29:56.750Z,61.70
2023-02-13T16:32:28.320Z,62.30
2023-02-13T16:34:56.438Z,63.60
2023-02-13T16:37:28.809Z,63.10
2023-02-13T16:39:57.892Z,64.60
2023-02-13T16:42:26.378Z,64.70
2023-02-13T16:45:24.297Z,65.10
2023-02-13T16:48:02.349Z,67.30
2023-02-13T16:50:31.121Z,67.30
2023-02-13T16:53:01.692Z,66.90
2023-02-13T16:55:31.669Z,67.80
2023-02-13T16:58:03.472Z,68.20
2023-02-13T17:00:31.532Z,69.40
2023-02-13T17:02:59.200Z,68.90
2023-02-13T17:05:28.094Z,69.70
2023-02-13T17:07:57.003Z,70.10
2023-02-13T17:10:27.195Z,70.30
2023-02-13T17:12:56.870Z,70.80
2023-02-13T17:15:25.456Z,71.30
2023-02-13T17:17:55.225Z,71.60
2023-02-13T17:20:24.090Z,71.70
2023-02-13T17:22:53.171Z,71.90
2023-02-13T17:25:22.404Z,72.30
2023-02-13T17:27:50.328Z,72.40
2023-02-13T17:30:20.556Z,72.40
2023-02-13T17:32:48.386Z,72.90
2023-02-13T17:35:16.524Z,72.80
2023-02-13T17:37:44.845Z,73.20
2023-02-13T17:40:16.542Z,73.40
2023-02-13T17:42:44.816Z,74.20
2023-02-13T17:45:12.719Z,73.70
2023-02-13T17:47:41.721Z,74.50
2023-02-13T17:50:10.892Z,74.50
2023-02-13T17:52:38.897Z,74.40
2023-02-13T17:55:08.311Z,74.30
2023-02-13T17:57:35.962Z,74.30
2023-02-13T18:00:04.795Z,74.60
2023-02-13T18:02:42.424Z,74.80
2023-02-13T18:05:10.184Z,75.30
2023-02-13T18:07:39.325Z,75.70
2023-02-13T18:10:08.791Z,75.40
2023-02-13T18:12:36.457Z,75.40
2023-02-13T18:15:05.265Z,75.50
2023-02-13T18:17:33.095Z,75.70
2023-02-13T18:20:02.183Z,75.70
2023-02-13T18:22:30.112Z,76.10
2023-02-13T18:24:57.769Z,76.00
2023-02-13T18:27:26.809Z,76.10
2023-02-13T18:29:55.012Z,76.00
2023-02-13T18:32:22.831Z,76.20
2023-02-13T18:34:50.889Z,76.10
2023-02-13T18:37:20.091Z,76.10
2023-02-13T18:39:47.756Z,76.60
2023-02-13T18:42:15.401Z,76.30
2023-02-13T18:44:43.051Z,76.50
2023-02-13T18:47:10.718Z,76.60
2023-02-13T18:49:38.401Z,76.50
2023-02-13T18:52:06.064Z,76.40
2023-02-13T18:54:35.035Z,76.60
2023-02-13T18:57:02.706Z,76.50
2023-02-13T18:59:30.381Z,76.50
2023-02-13T19:01:58.064Z,76.50
2023-02-13T19:04:25.755Z,76.50
2023-02-13T19:06:53.423Z,76.60
2023-02-13T19:09:21.090Z,76.70
2023-02-13T19:11:50.098Z,76.70
2023-02-13T19:14:17.780Z,76.80
2023-02-13T19:16:45.473Z,76.80
2023-02-13T19:19:13.133Z,77.00
2023-02-13T19:21:40.952Z,77.10
2023-02-13T19:24:09.641Z,77.10
2023-02-13T19:26:37.556Z,77.20
2023-02-13T19:29:06.595Z,77.20
2023-02-13T19:31:34.538Z,77.60
2023-02-13T19:34:02.336Z,77.50
2023-02-13T19:36:30.569Z,77.70
2023-02-13T19:38:58.924Z,77.80
2023-02-13T19:41:26.730Z,77.80
2023-02-13T19:43:54.396Z,77.80
2023-02-13T19:46:24.606Z,77.80
2023-02-13T19:48:52.541Z,77.90
2023-02-13T19:51:20.868Z,77.70
2023-02-13T19:53:48.789Z,77.70
2023-02-13T19:56:16.486Z,77.80
2023-02-13T19:58:44.230Z,77.90
2023-02-13T20:01:13.446Z,77.80
2023-02-13T20:03:42.590Z,77.90
2023-02-13T20:06:11.573Z,78.00
2023-02-13T20:08:40.873Z,78.20
2023-02-13T20:11:09.842Z,78.20
2023-02-13T20:13:37.592Z,78.20
2023-02-13T20:16:06.242Z,78.40
2023-02-13T20:18:34.544Z,78.50
2023-02-13T20:21:05.448Z,78.60
2023-02-13T20:23:33.111Z,78.70
2023-02-13T20:26:03.954Z,78.70
2023-02-13T20:28:31.613Z,78.80
2023-02-13T20:31:00.539Z,78.80
2023-02-13T20:33:28.530Z,78.80
2023-02-13T20:35:56.218Z,78.80
2023-02-13T20:38:25.585Z,78.70
2023-02-13T20:40:53.279Z,78.90
2023-02-13T20:43:21.741Z,78.90
2023-02-13T20:45:49.530Z,78.80
2023-02-13T20:48:17.461Z,79.00
2023-02-13T20:50:45.112Z,79.00
2023-02-13T20:53:12.937Z,79.10
2023-02-13T20:55:41.939Z,79.00
2023-02-13T20:58:09.918Z,78.90
2023-02-13T21:00:37.701Z,79.00
2023-02-13T21:03:05.500Z,78.70
2023-02-13T21:05:33.198Z,78.60
2023-02-13T21:08:01.183Z,78.70
2023-02-13T21:10:28.917Z,78.60
2023-02-13T21:12:57.913Z,78.50
2023-02-13T21:15:25.618Z,78.30
2023-02-13T21:17:53.318Z,78.20
2023-02-13T21:20:21.030Z,78.20
2023-02-13T21:22:48.866Z,77.90
2023-02-13T21:25:16.641Z,77.40
2023-02-13T21:27:44.301Z,77.40
2023-02-13T21:30:13.817Z,77.10
2023-02-13T21:32:42.156Z,76.60
2023-02-13T21:35:09.914Z,76.70
2023-02-13T21:37:37.562Z,76.40
2023-02-13T21:40:06.140Z,76.00
2023-02-13T21:42:33.780Z,75.90
2023-02-13T21:45:01.413Z,75.60
2023-02-13T21:47:30.442Z,75.60
2023-02-13T21:49:58.106Z,75.00
2023-02-13T21:52:25.934Z,74.80
2023-02-13T21:54:53.572Z,74.40
2023-02-13T21:57:21.219Z,74.10
2023-02-13T21:59:49.273Z,73.80
2023-02-13T22:02:17.028Z,73.40
2023-02-13T22:04:46.088Z,73.10
2023-02-13T22:07:13.752Z,72.50
2023-02-13T22:09:41.393Z,72.50
2023-02-13T22:12:09.056Z,72.20
2023-02-13T22:14:36.689Z,72.00
2023-02-13T22:17:04.457Z,71.70
2023-02-13T22:19:32.223Z,71.00
2023-02-13T22:22:01.287Z,70.80
2023-02-13T22:24:29.072Z,69.90
2023-02-13T22:26:56.721Z,70.10
2023-02-13T22:29:25.905Z,69.80
2023-02-13T22:31:53.689Z,69.10
2023-02-13T22:34:21.456Z,68.90
2023-02-13T22:36:49.100Z,68.50
2023-02-13T22:39:18.091Z,67.90
2023-02-13T22:41:46.456Z,67.00
2023-02-13T22:44:14.141Z,66.70
2023-02-13T22:46:41.844Z,66.20
2023-02-13T22:49:09.525Z,65.40
2023-02-13T22:51:37.433Z,65.20
2023-02-13T22:54:05.215Z,64.50
2023-02-13T22:56:34.341Z,64.30
2023-02-13T22:59:02.251Z,63.50
2023-02-13T23:01:30.221Z,63.30
2023-02-13T23:03:58.009Z,62.80
2023-02-13T23:06:25.865Z,62.50
2023-02-13T23:08:53.909Z,62.00
2023-02-13T23:11:40.356Z,61.50
2023-02-13T23:14:09.948Z,60.90
2023-02-13T23:16:52.438Z,59.90
2023-02-13T23:19:20.390Z,59.60
2023-02-13T23:21:48.101Z,59.50
2023-02-13T23:24:15.791Z,59.00
2023-02-13T23:26:43.453Z,58.60
2023-02-13T23:29:12.442Z,58.20
2023-02-13T23:31:40.292Z,57.50
2023-02-13T23:34:08.203Z,57.50
2023-02-13T23:36:35.898Z,57.00
2023-02-13T23:39:03.540Z,56.70
2023-02-13T23:41:31.190Z,56.50
2023-02-13T23:43:58.887Z,56.10
2023-02-13T23:46:27.984Z,55.80
2023-02-13T23:48:55.655Z,55.20
2023-02-13T23:51:25.422Z,55.10
2023-02-13T23:53:55.876Z,54.80
2023-02-13T23:56:23.791Z,54.30
2023-02-13T23:58:51.478Z,54.10
